Etusivu
METAR-TAF:

METAR-TAF

Lentoasemat :

Palestine Municipal Airport

Palestine, Texas, Yhdysvallat

Leveyspiiri: 31-46-46N, Pituuspiiri: 095-42-22W, korkeus merenpinnasta: 129 m

Tämänhetkinen sää

Tämä raportti tehtiin 15 minuuttia sitten, kello 15.15 UTC
Tuuli 10 kn pohjoisesta/koillisesta puuskistuen 21 kn:hen
Lämpötila 8°C
Kosteus 87%
Ilmanpaine 1023 hPa
Näkyvyys: 16.1 km
Pilvistä 6500 ft:n korkeudessa
heikkoa sadetta

METAR: KPSN 011515Z AUTO 03010G21KT 10SM -RA OVC065 08/06 A3020 RMK AO2

Aika: 09:30 (15:30 UTC)


TAF: puuttuu

Säähavainnot ja -ennusteet yli 4000 lentoasemalta (METAR- ja TAF-raportit).

Käytössä olevat sääasemat on merkitty karttaan keltaisilla ja punaisilla pisteillä.

Aseta hiiri pisteen päälle nähdäksesi sääaseman nimen.

Klikkaa sitten nähdäksesi säähavainnot ja -ennusteet.

Kartan vaihtaminen: klikkaa mustalla rastilla varustettuja vihreitä pisteitä, niin voit zoomata sisään; viivalla varustettua vihreää pistettä, niin voit zoomata ulos tai vihreitä nuolia, niin pääset viereisille kartoille.


METAR-TAF: